createdAt,value
2019-04-21T00:00:45.636Z,69.92
2019-04-21T00:01:48.428Z,69.92
2019-04-21T00:02:44.487Z,69.63
2019-04-21T00:03:50.130Z,69.44
2019-04-21T00:04:55.868Z,69.25
2019-04-21T00:06:03.021Z,70.30
2019-04-21T00:07:03.069Z,70.10
2019-04-21T00:08:10.771Z,69.82
2019-04-21T00:09:03.819Z,69.54
2019-04-21T00:10:06.303Z,69.54
2019-04-21T00:11:05.891Z,68.96
2019-04-21T00:12:04.254Z,69.15
2019-04-21T00:12:58.927Z,70.10
2019-04-21T00:13:56.072Z,69.54
2019-04-21T00:14:51.281Z,69.73
2019-04-21T00:15:49.885Z,69.44
2019-04-21T00:16:51.089Z,69.44
2019-04-21T00:17:43.649Z,69.73
2019-04-21T00:18:50.599Z,70.07
2019-04-21T00:19:42.954Z,70.49
2019-04-21T00:20:49.515Z,70.36
2019-04-21T00:21:47.783Z,70.39
2019-04-21T00:22:53.540Z,70.45
2019-04-21T00:24:01.638Z,70.17
2019-04-21T00:24:56.848Z,70.17
2019-04-21T00:25:51.215Z,70.54
2019-04-21T00:26:59.022Z,70.36
2019-04-21T00:27:57.669Z,70.74
2019-04-21T00:29:03.914Z,71.22
2019-04-21T00:30:04.531Z,70.93
2019-04-21T00:31:00.516Z,70.07
2019-04-21T00:31:58.948Z,70.36
2019-04-21T00:32:53.982Z,70.36
2019-04-21T00:33:46.062Z,70.17
2019-04-21T00:34:48.444Z,70.45
2019-04-21T00:35:52.133Z,71.31
2019-04-21T00:36:53.474Z,71.31
2019-04-21T00:38:06.906Z,70.54
2019-04-21T00:39:14.568Z,70.07
2019-04-21T00:40:03.678Z,69.98
2019-04-21T00:41:11.384Z,70.26
2019-04-21T00:41:59.935Z,69.88
2019-04-21T00:43:01.269Z,70.36
2019-04-21T00:43:57.041Z,70.54
2019-04-21T00:45:00.790Z,70.36
2019-04-21T00:45:51.812Z,70.17
2019-04-21T00:46:55.847Z,70.54
2019-04-21T00:48:05.663Z,71.22
2019-04-21T00:48:57.370Z,71.41
2019-04-21T00:50:05.054Z,70.45
2019-04-21T00:51:20.807Z,70.83
2019-04-21T00:52:11.326Z,71.31
2019-04-21T00:53:25.370Z,71.02
2019-04-21T00:54:12.644Z,71.59
2019-04-21T00:55:14.263Z,71.31
2019-04-21T00:56:08.674Z,71.41
2019-04-21T00:57:13.040Z,71.31
2019-04-21T00:58:06.834Z,70.74
2019-04-21T00:59:06.433Z,70.36
2019-04-21T01:00:07.691Z,70.07
2019-04-21T01:01:01.584Z,69.98
2019-04-21T01:02:00.031Z,70.54
2019-04-21T01:03:04.609Z,70.64
2019-04-21T01:04:06.626Z,70.17
2019-04-21T01:05:04.868Z,70.04
2019-04-21T01:06:03.285Z,70.45
2019-04-21T01:07:05.564Z,70.36
2019-04-21T01:07:59.427Z,70.45
2019-04-21T01:08:59.069Z,70.17
2019-04-21T01:09:55.816Z,71.12
2019-04-21T01:10:53.145Z,70.64
2019-04-21T01:12:03.814Z,71.59
2019-04-21T01:13:02.705Z,71.41
2019-04-21T01:14:10.040Z,71.50
2019-04-21T01:15:06.259Z,71.59
2019-04-21T01:16:12.637Z,71.59
2019-04-21T01:17:07.148Z,71.31
2019-04-21T01:18:04.811Z,72.35
2019-04-21T01:19:02.197Z,72.32
2019-04-21T01:19:59.602Z,72.32
2019-04-21T01:20:41.023Z,72.22
2019-04-21T01:21:40.999Z,72.60
2019-04-21T01:22:40.979Z,72.74
2019-04-21T01:23:42.264Z,73.02
2019-04-21T01:24:45.262Z,72.74
2019-04-21T01:25:50.053Z,72.99
2019-04-21T01:26:53.655Z,72.79
2019-04-21T01:27:54.142Z,72.32
2019-04-21T01:28:59.997Z,72.79
2019-04-21T01:30:01.220Z,72.51
2019-04-21T01:31:03.997Z,72.60
2019-04-21T01:32:08.109Z,72.70
2019-04-21T01:33:06.320Z,73.08
2019-04-21T01:34:02.625Z,72.41
2019-04-21T01:35:02.636Z,72.79
2019-04-21T01:35:58.058Z,72.70
2019-04-21T01:36:58.848Z,73.18
2019-04-21T01:38:03.055Z,72.51
2019-04-21T01:39:07.955Z,72.70
2019-04-21T01:39:54.607Z,72.51
2019-04-21T01:41:08.625Z,72.41
2019-04-21T01:42:04.417Z,73.27
2019-04-21T01:43:04.843Z,72.51
2019-04-21T01:43:57.476Z,72.22
2019-04-21T01:45:02.403Z,72.89
2019-04-21T01:46:04.496Z,73.18
2019-04-21T01:46:54.449Z,72.70
2019-04-21T01:47:56.032Z,72.60
2019-04-21T01:48:57.996Z,72.70
2019-04-21T01:49:52.555Z,73.65
2019-04-21T01:50:56.807Z,73.36
2019-04-21T01:52:10.064Z,73.65
2019-04-21T01:53:05.660Z,72.89
2019-04-21T01:54:03.867Z,72.89
2019-04-21T01:55:04.829Z,74.12
2019-04-21T01:56:02.750Z,74.03
2019-04-21T01:57:01.642Z,74.51
2019-04-21T01:57:57.644Z,75.26
2019-04-21T01:58:51.468Z,75.17
2019-04-21T01:59:54.259Z,75.36
2019-04-21T02:00:56.766Z,75.26
2019-04-21T02:02:02.043Z,74.60
2019-04-21T02:03:10.720Z,73.93
2019-04-21T02:05:03.155Z,73.84
2019-04-21T02:06:07.659Z,74.41
2019-04-21T02:07:03.268Z,74.69
2019-04-21T02:07:55.161Z,73.84
2019-04-21T02:08:57.733Z,74.69
2019-04-21T02:10:05.057Z,74.51
2019-04-21T02:11:07.628Z,74.60
2019-04-21T02:12:02.545Z,75.04
2019-04-21T02:13:00.673Z,74.37
2019-04-21T02:14:05.955Z,74.69
2019-04-21T02:15:04.854Z,75.32
2019-04-21T02:16:05.461Z,75.13
2019-04-21T02:16:59.627Z,75.32
2019-04-21T02:17:59.603Z,75.99
2019-04-21T02:18:58.465Z,75.89
2019-04-21T02:19:55.775Z,75.60
2019-04-21T02:20:48.245Z,76.27
2019-04-21T02:21:56.742Z,76.18
2019-04-21T02:23:23.336Z,76.37
2019-04-21T02:24:05.049Z,76.46
2019-04-21T02:25:02.863Z,76.08
2019-04-21T02:26:03.547Z,76.93
2019-04-21T02:26:59.513Z,77.51
2019-04-21T02:28:03.222Z,77.60
2019-04-21T02:29:01.967Z,77.89
2019-04-21T02:30:02.782Z,77.70
2019-04-21T02:32:01.657Z,77.03
2019-04-21T02:33:13.735Z,76.84
2019-04-21T02:34:09.143Z,77.12
2019-04-21T02:37:28.634Z,77.41
2019-04-21T02:38:12.172Z,77.41
2019-04-21T02:39:16.510Z,77.12
2019-04-21T02:41:09.542Z,77.60
2019-04-21T02:43:13.232Z,78.45
2019-04-21T02:44:08.667Z,78.93
2019-04-21T02:45:09.226Z,79.60
2019-04-21T02:46:12.476Z,79.22
2019-04-21T02:47:12.221Z,78.74
2019-04-21T02:48:09.781Z,78.03
2019-04-21T02:49:17.100Z,77.75
2019-04-21T02:50:09.529Z,78.03
2019-04-21T02:51:17.407Z,78.13
2019-04-21T02:52:13.846Z,78.51
2019-04-21T02:53:11.796Z,79.08
2019-04-21T02:55:06.324Z,80.03
2019-04-21T02:56:09.654Z,79.65
2019-04-21T02:59:28.919Z,79.55
2019-04-21T03:01:18.797Z,80.03
2019-04-21T03:04:10.703Z,79.65
2019-04-21T03:05:11.699Z,80.03
2019-04-21T03:06:06.170Z,80.32
2019-04-21T03:07:13.273Z,79.55
2019-04-21T03:09:09.196Z,79.46
2019-04-21T03:10:12.306Z,79.84
2019-04-21T03:11:11.146Z,79.74
2019-04-21T03:13:17.478Z,79.84
2019-04-21T03:15:18.214Z,79.94
2019-04-21T03:16:21.435Z,80.13
2019-04-21T03:19:19.568Z,80.32
2019-04-21T03:20:14.688Z,80.98
2019-04-21T03:21:26.313Z,80.88
2019-04-21T03:22:14.470Z,80.88
2019-04-21T03:23:21.349Z,80.88
2019-04-21T03:24:13.806Z,80.98
2019-04-21T03:25:29.551Z,81.36
2019-04-21T03:27:25.687Z,81.84
2019-04-21T03:29:12.056Z,81.98
2019-04-21T03:30:21.553Z,81.93
2019-04-21T03:34:48.358Z,81.98
2019-04-21T03:35:54.197Z,82.55
2019-04-21T03:37:11.789Z,82.17
2019-04-21T03:38:16.671Z,82.36
2019-04-21T03:39:01.086Z,82.55
2019-04-21T03:40:10.357Z,81.79
2019-04-21T03:41:10.600Z,81.60
2019-04-21T03:42:19.831Z,81.88
2019-04-21T03:44:13.024Z,81.32
2019-04-21T03:45:12.622Z,81.13
2019-04-21T03:46:11.951Z,81.70
2019-04-21T03:48:11.343Z,82.27
2019-04-21T03:49:12.953Z,82.55
2019-04-21T03:51:15.903Z,81.98
2019-04-21T03:52:11.932Z,81.79
2019-04-21T03:53:09.323Z,81.88
2019-04-21T03:54:07.884Z,82.46
2019-04-21T03:55:33.907Z,82.65
2019-04-21T03:58:17.799Z,83.22
2019-04-21T04:00:23.964Z,82.55
2019-04-21T04:01:36.074Z,83.12
2019-04-21T04:03:27.502Z,83.12
2019-04-21T04:04:22.441Z,83.03
2019-04-21T04:05:12.684Z,83.12
2019-04-21T04:06:07.970Z,83.03
2019-04-21T04:07:12.956Z,83.50
2019-04-21T04:08:22.776Z,84.07
2019-04-21T04:09:21.277Z,83.03
2019-04-21T04:10:09.151Z,83.97
2019-04-21T04:11:21.004Z,84.26
2019-04-21T04:12:02.425Z,84.36
2019-04-21T04:13:09.450Z,84.55
2019-04-21T04:14:12.735Z,84.17
2019-04-21T04:15:16.169Z,84.45
2019-04-21T04:16:13.831Z,84.64
2019-04-21T04:17:14.438Z,84.55
2019-04-21T04:18:04.324Z,85.49
2019-04-21T04:19:11.957Z,85.30
2019-04-21T04:20:11.848Z,85.30
2019-04-21T04:21:15.018Z,84.92
2019-04-21T04:23:20.647Z,85.30
2019-04-21T04:24:09.137Z,84.45
2019-04-21T04:26:09.444Z,84.36
2019-04-21T04:28:08.577Z,83.97
2019-04-21T04:30:12.562Z,84.36
2019-04-21T04:31:19.617Z,84.26
2019-04-21T04:32:04.956Z,83.88
2019-04-21T04:33:07.871Z,84.36
2019-04-21T04:36:10.827Z,83.69
2019-04-21T04:37:17.386Z,84.40
2019-04-21T04:38:20.147Z,83.78
2019-04-21T04:39:15.386Z,83.83
2019-04-21T04:40:10.796Z,83.54
2019-04-21T04:41:19.848Z,83.64
2019-04-21T04:44:17.484Z,83.83
2019-04-21T04:45:12.689Z,84.01
2019-04-21T04:47:12.337Z,83.64
2019-04-21T04:48:07.563Z,83.16
2019-04-21T04:49:10.676Z,83.45
2019-04-21T04:50:00.723Z,84.11
2019-04-21T04:51:01.969Z,83.26
2019-04-21T04:52:21.052Z,83.45
2019-04-21T04:53:11.990Z,83.26
2019-04-21T04:54:32.371Z,83.26
2019-04-21T04:56:20.568Z,83.36
2019-04-21T04:58:15.913Z,82.97
2019-04-21T04:59:29.993Z,82.64
2019-04-21T05:00:19.086Z,83.30
2019-04-21T05:01:13.790Z,83.39
2019-04-21T05:02:20.338Z,83.01
2019-04-21T05:03:00.961Z,82.92
2019-04-21T05:04:06.001Z,82.73
2019-04-21T05:06:10.561Z,82.35
2019-04-21T05:07:11.938Z,82.26
2019-04-21T05:11:23.987Z,82.45
2019-04-21T05:12:17.524Z,82.26
2019-04-21T05:13:06.217Z,82.26
2019-04-21T05:14:21.724Z,82.35
2019-04-21T05:16:14.410Z,82.77
2019-04-21T05:17:08.520Z,82.29
2019-04-21T05:18:04.940Z,81.73
2019-04-21T05:20:13.245Z,81.54
2019-04-21T05:21:19.008Z,81.16
2019-04-21T05:22:07.710Z,80.77
2019-04-21T05:22:59.766Z,80.77
2019-04-21T05:23:55.803Z,80.40
2019-04-21T05:24:56.153Z,79.92
2019-04-21T05:25:51.195Z,79.96
2019-04-21T05:26:53.307Z,79.68
2019-04-21T05:27:52.489Z,79.01
2019-04-21T05:28:48.631Z,78.91
2019-04-21T05:29:58.574Z,78.63
2019-04-21T05:31:09.049Z,78.34
2019-04-21T05:31:54.740Z,78.82
2019-04-21T05:32:59.925Z,78.25
2019-04-21T05:34:00.091Z,77.49
2019-04-21T05:34:56.984Z,77.58
2019-04-21T05:35:55.222Z,77.43
2019-04-21T05:36:56.800Z,77.68
2019-04-21T05:37:58.660Z,76.86
2019-04-21T05:38:53.071Z,76.96
2019-04-21T05:39:52.418Z,76.39
2019-04-21T05:40:48.343Z,76.67
2019-04-21T05:41:42.886Z,75.91
2019-04-21T05:42:54.875Z,76.10
2019-04-21T05:44:01.606Z,76.01
2019-04-21T05:45:01.705Z,75.43
2019-04-21T05:45:58.461Z,75.24
2019-04-21T05:47:09.645Z,74.67
2019-04-21T05:48:07.641Z,74.67
2019-04-21T05:48:54.779Z,73.85
2019-04-21T05:49:55.662Z,74.14
2019-04-21T05:50:54.088Z,73.76
2019-04-21T05:51:49.893Z,73.85
2019-04-21T05:52:51.640Z,72.71
2019-04-21T05:53:57.426Z,72.94
2019-04-21T05:55:58.678Z,72.75
2019-04-21T05:57:57.225Z,72.85
2019-04-21T05:58:58.067Z,71.98
2019-04-21T05:59:53.729Z,72.17
2019-04-21T06:02:06.776Z,71.45
2019-04-21T06:03:04.262Z,71.45
2019-04-21T06:04:05.503Z,71.26
2019-04-21T06:07:06.148Z,71.45
2019-04-21T06:08:02.390Z,70.59
2019-04-21T06:09:05.322Z,70.59
2019-04-21T06:09:59.656Z,69.64
2019-04-21T06:11:02.426Z,69.77
2019-04-21T06:11:59.920Z,69.20
2019-04-21T06:12:59.633Z,68.91
2019-04-21T06:14:05.981Z,69.01
2019-04-21T06:15:56.937Z,68.91
2019-04-21T06:17:01.496Z,68.76
2019-04-21T06:18:01.022Z,67.99
2019-04-21T06:19:00.989Z,67.33
2019-04-21T06:20:13.647Z,66.75
2019-04-21T06:21:00.403Z,67.14
2019-04-21T06:21:51.109Z,67.42
2019-04-21T06:23:00.711Z,67.04
2019-04-21T06:24:00.040Z,67.52
2019-04-21T06:25:21.665Z,67.23
2019-04-21T06:26:09.949Z,67.33
2019-04-21T06:27:57.232Z,66.41
2019-04-21T06:28:59.291Z,66.02
2019-04-21T06:30:03.426Z,65.93
2019-04-21T06:31:08.191Z,66.12
2019-04-21T06:32:22.005Z,65.77
2019-04-21T06:34:02.189Z,65.58
2019-04-21T06:37:07.805Z,64.25
2019-04-21T06:37:56.459Z,64.47
2019-04-21T06:40:10.427Z,63.80
2019-04-21T06:40:59.394Z,63.16
2019-04-21T06:41:58.424Z,62.81
2019-04-21T06:43:16.305Z,61.79
2019-04-21T06:44:06.092Z,60.10
2019-04-21T06:45:01.895Z,59.11
2019-04-21T06:45:58.948Z,57.28
2019-04-21T06:47:02.562Z,55.49
2019-04-21T06:48:00.882Z,53.79
2019-04-21T06:49:58.977Z,52.26
2019-04-21T06:50:59.370Z,52.86
2019-04-21T06:51:58.252Z,51.45
2019-04-21T06:52:59.016Z,51.45
2019-04-21T06:55:09.152Z,50.15
2019-04-21T06:56:00.157Z,49.41
2019-04-21T06:56:56.365Z,47.10
2019-04-21T06:57:58.267Z,46.33
2019-04-21T06:58:57.922Z,46.23
2019-04-21T06:59:55.559Z,46.62
2019-04-21T07:00:56.171Z,46.33
2019-04-21T07:01:56.602Z,45.39
2019-04-21T07:04:05.930Z,44.55
2019-04-21T07:05:01.630Z,44.74
2019-04-21T07:06:03.430Z,43.80
2019-04-21T07:07:03.189Z,43.90
2019-04-21T07:08:16.883Z,43.78
2019-04-21T07:09:08.483Z,43.97
2019-04-21T07:09:57.002Z,44.17
2019-04-21T07:10:59.148Z,44.11
2019-04-21T07:11:56.811Z,43.44
2019-04-21T07:12:52.450Z,43.37
2019-04-21T07:14:13.467Z,42.49
2019-04-21T07:14:59.545Z,41.75
2019-04-21T07:15:55.860Z,41.84
2019-04-21T07:16:56.343Z,42.13
2019-04-21T07:18:01.216Z,41.67
2019-04-21T07:20:02.147Z,41.38
2019-04-21T07:20:53.117Z,41.60
2019-04-21T07:21:57.442Z,40.55
2019-04-21T07:22:57.006Z,40.26
2019-04-21T07:23:59.314Z,39.01
2019-04-21T07:25:02.922Z,39.39
2019-04-21T07:25:57.886Z,40.28
2019-04-21T07:27:42.765Z,39.20
2019-04-21T07:28:46.103Z,39.29
2019-04-21T07:29:44.047Z,39.12
2019-04-21T07:30:37.756Z,39.24
2019-04-21T07:31:47.006Z,39.06
2019-04-21T07:32:40.152Z,37.52
2019-04-21T07:33:53.848Z,37.30
2019-04-21T07:34:37.929Z,37.87
2019-04-21T07:35:37.414Z,38.06
2019-04-21T07:36:46.331Z,38.37
2019-04-21T07:37:35.071Z,37.79
2019-04-21T07:38:36.536Z,37.90
2019-04-21T07:39:33.977Z,37.90
2019-04-21T07:40:33.735Z,39.06
2019-04-21T07:41:33.965Z,37.23
2019-04-21T07:42:32.552Z,36.86
2019-04-21T07:43:30.017Z,36.49
2019-04-21T07:44:32.888Z,36.86
2019-04-21T07:45:30.429Z,36.65
2019-04-21T07:46:30.029Z,37.04
2019-04-21T07:47:39.626Z,37.42
2019-04-21T07:48:37.610Z,37.21
2019-04-21T07:49:40.136Z,37.58
2019-04-21T07:50:39.024Z,38.45
2019-04-21T07:51:42.273Z,38.16
2019-04-21T07:52:39.472Z,38.64
2019-04-21T07:53:48.135Z,38.56
2019-04-21T07:54:44.440Z,37.88
2019-04-21T07:55:33.967Z,38.08
2019-04-21T07:56:22.813Z,38.08
2019-04-21T07:57:31.983Z,38.93
2019-04-21T07:58:38.747Z,38.93
2019-04-21T08:01:40.106Z,39.57
2019-04-21T08:02:34.144Z,40.44
2019-04-21T08:03:38.880Z,40.26
2019-04-21T08:04:55.994Z,40.30
2019-04-21T08:05:53.655Z,39.36
2019-04-21T08:07:49.270Z,38.02
2019-04-21T08:08:34.189Z,37.63
2019-04-21T08:09:31.950Z,37.23
2019-04-21T08:10:33.300Z,37.54
2019-04-21T08:11:32.705Z,36.88
2019-04-21T08:12:30.198Z,35.27
2019-04-21T08:13:53.051Z,34.89
2019-04-21T08:14:35.610Z,33.92
2019-04-21T08:15:39.960Z,34.80
2019-04-21T08:16:37.324Z,33.44
2019-04-21T08:17:36.638Z,33.23
2019-04-21T08:18:39.840Z,32.84
2019-04-21T08:20:34.885Z,33.75
2019-04-21T08:22:14.026Z,32.99
2019-04-21T08:22:43.191Z,33.01
2019-04-21T08:23:39.932Z,33.51
2019-04-21T08:24:34.731Z,33.04
2019-04-21T08:25:42.013Z,31.98
2019-04-21T08:26:35.977Z,31.92
2019-04-21T08:27:44.224Z,30.38
2019-04-21T08:28:42.734Z,29.91
2019-04-21T08:29:42.194Z,29.11
2019-04-21T08:30:36.465Z,28.51
2019-04-21T08:31:53.034Z,29.69
2019-04-21T08:32:44.708Z,29.69
2019-04-21T08:33:41.424Z,29.38
2019-04-21T08:34:37.379Z,30.32
2019-04-21T08:36:00.865Z,29.74
2019-04-21T08:36:38.406Z,29.64
2019-04-21T08:37:39.859Z,30.01
2019-04-21T08:38:35.615Z,30.51
2019-04-21T08:39:37.931Z,30.59
2019-04-21T08:40:51.804Z,31.47
2019-04-21T08:41:33.984Z,31.97
2019-04-21T08:42:41.521Z,31.65
2019-04-21T08:44:44.916Z,32.02
2019-04-21T08:46:39.161Z,32.79
2019-04-21T08:47:39.865Z,33.18
2019-04-21T08:48:40.419Z,33.36
2019-04-21T08:49:36.353Z,33.46
2019-04-21T08:50:30.586Z,33.34
2019-04-21T08:51:39.467Z,33.07
2019-04-21T08:52:45.708Z,31.79
2019-04-21T08:53:42.746Z,33.75
2019-04-21T08:54:34.571Z,33.65
2019-04-21T08:55:40.076Z,33.94
2019-04-21T08:56:34.374Z,32.47
2019-04-21T08:57:41.892Z,33.04
2019-04-21T08:58:41.358Z,33.23
2019-04-21T08:59:39.875Z,34.30
2019-04-21T09:00:38.855Z,34.99
2019-04-21T09:01:36.641Z,33.44
2019-04-21T09:02:43.259Z,32.76
2019-04-21T09:03:35.787Z,31.70
2019-04-21T09:04:35.231Z,33.06
2019-04-21T09:05:39.354Z,34.01
2019-04-21T09:06:58.919Z,34.97
2019-04-21T09:07:41.423Z,35.57
2019-04-21T09:08:31.740Z,34.91
2019-04-21T09:09:38.138Z,33.36
2019-04-21T09:10:35.462Z,33.07
2019-04-21T09:11:36.316Z,32.76
2019-04-21T09:12:37.208Z,32.47
2019-04-21T09:13:38.411Z,32.96
2019-04-21T09:14:37.072Z,32.76
2019-04-21T09:15:30.900Z,33.25
2019-04-21T09:16:30.611Z,32.47
2019-04-21T09:17:28.428Z,32.47
2019-04-21T09:18:28.485Z,33.44
2019-04-21T09:19:44.422Z,34.12
2019-04-21T09:20:38.994Z,34.70
2019-04-21T09:21:42.289Z,33.64
2019-04-21T09:22:35.805Z,34.12
2019-04-21T09:23:32.851Z,33.44
2019-04-21T09:24:35.151Z,34.04
2019-04-21T09:25:40.621Z,33.17
2019-04-21T09:26:29.529Z,31.99
2019-04-21T09:27:30.490Z,33.15
2019-04-21T09:28:25.520Z,32.94
2019-04-21T09:29:26.571Z,31.76
2019-04-21T09:30:15.877Z,33.22
2019-04-21T09:31:19.273Z,33.99
2019-04-21T09:32:20.325Z,34.01
2019-04-21T09:33:16.116Z,33.33
2019-04-21T09:34:22.390Z,33.31
2019-04-21T09:35:18.368Z,33.60
2019-04-21T09:36:21.181Z,33.22
2019-04-21T09:37:28.850Z,33.97
2019-04-21T09:38:26.469Z,35.15
2019-04-21T09:39:20.110Z,34.77
2019-04-21T09:40:21.766Z,34.09
2019-04-21T09:41:18.975Z,33.62
2019-04-21T09:42:18.423Z,33.04
2019-04-21T09:43:26.995Z,32.64
2019-04-21T09:44:23.889Z,34.67
2019-04-21T09:45:17.626Z,34.57
2019-04-21T09:46:16.129Z,33.12
2019-04-21T09:47:20.192Z,34.11
2019-04-21T09:48:19.493Z,32.65
2019-04-21T09:49:21.719Z,32.57
2019-04-21T09:50:15.787Z,32.28
2019-04-21T09:51:15.786Z,32.47
2019-04-21T09:52:21.050Z,32.96
2019-04-21T09:53:24.943Z,34.53
2019-04-21T09:54:23.130Z,33.07
2019-04-21T09:55:19.639Z,31.81
2019-04-21T09:56:19.597Z,31.05
2019-04-21T09:57:27.444Z,32.60
2019-04-21T09:58:24.278Z,30.77
2019-04-21T09:59:24.032Z,29.43
2019-04-21T10:00:22.493Z,29.61
2019-04-21T10:01:22.662Z,30.98
2019-04-21T10:02:25.298Z,30.80
2019-04-21T10:03:17.545Z,29.85
2019-04-21T10:04:16.419Z,30.25
2019-04-21T10:05:16.847Z,30.07
2019-04-21T10:06:17.428Z,29.10
2019-04-21T10:07:24.522Z,29.42
2019-04-21T10:08:16.637Z,28.94
2019-04-21T10:09:19.428Z,27.98
2019-04-21T10:10:17.134Z,27.70
2019-04-21T10:11:16.485Z,26.93
2019-04-21T10:12:16.288Z,25.27
2019-04-21T10:13:17.045Z,25.00
2019-04-21T10:14:15.712Z,24.00
2019-04-21T10:15:16.537Z,25.65
2019-04-21T10:16:15.707Z,26.34
2019-04-21T10:17:15.702Z,25.78
2019-04-21T10:18:15.704Z,25.59
2019-04-21T10:19:15.708Z,25.51
2019-04-21T10:20:17.045Z,24.43
2019-04-21T10:21:15.699Z,23.83
2019-04-21T10:22:17.017Z,25.29
2019-04-21T10:23:15.744Z,24.39
2019-04-21T10:24:16.021Z,23.80
2019-04-21T10:25:16.636Z,24.32
2019-04-21T10:26:16.794Z,24.22
2019-04-21T10:27:16.977Z,24.22
2019-04-21T10:28:16.764Z,23.36
2019-04-21T10:29:22.744Z,23.36
2019-04-21T10:30:16.234Z,24.15
2019-04-21T10:31:16.723Z,23.76
2019-04-21T10:32:18.292Z,23.27
2019-04-21T10:33:16.639Z,22.20
2019-04-21T10:34:16.901Z,22.21
2019-04-21T10:35:19.073Z,22.71
2019-04-21T10:36:15.687Z,22.72
2019-04-21T10:37:16.712Z,22.33
2019-04-21T10:38:26.353Z,22.55
2019-04-21T10:39:15.855Z,21.66
2019-04-21T10:40:15.896Z,20.48
2019-04-21T10:41:15.687Z,22.16
2019-04-21T10:42:15.677Z,19.91
2019-04-21T10:43:19.093Z,19.92
2019-04-21T10:44:17.021Z,18.73
2019-04-21T10:45:16.893Z,19.90
2019-04-21T10:46:16.912Z,18.92
2019-04-21T10:47:16.584Z,19.60
2019-04-21T10:48:16.851Z,20.69
2019-04-21T10:49:16.910Z,19.51
2019-04-21T10:50:16.314Z,19.89
2019-04-21T10:51:17.004Z,19.96
2019-04-21T10:52:16.860Z,20.53
2019-04-21T10:53:16.716Z,21.21
2019-04-21T10:54:15.874Z,20.63
2019-04-21T10:55:31.756Z,20.06
2019-04-21T10:56:25.123Z,21.14
2019-04-21T10:57:16.731Z,19.98
2019-04-21T10:58:16.206Z,20.09
2019-04-21T10:59:16.249Z,20.49
2019-04-21T11:00:17.154Z,20.69
2019-04-21T11:01:16.785Z,20.91
2019-04-21T11:02:16.979Z,17.77
2019-04-21T11:03:17.081Z,19.26
2019-04-21T11:04:21.886Z,18.08
2019-04-21T11:05:16.773Z,17.29
2019-04-21T11:06:16.853Z,17.19
2019-04-21T11:07:19.505Z,17.76
2019-04-21T11:08:24.552Z,17.56
2019-04-21T11:09:15.902Z,18.15
2019-04-21T11:10:16.128Z,17.75
2019-04-21T11:11:16.235Z,17.65
2019-04-21T11:12:15.685Z,19.13
2019-04-21T11:13:16.610Z,18.95
2019-04-21T11:14:15.699Z,18.17
2019-04-21T11:15:16.968Z,17.96
2019-04-21T11:16:17.141Z,17.96
2019-04-21T11:17:16.418Z,18.43
2019-04-21T11:18:15.753Z,18.91
2019-04-21T11:19:15.978Z,20.66
2019-04-21T11:20:17.100Z,19.18
2019-04-21T11:21:16.645Z,19.10
2019-04-21T11:22:16.738Z,19.10
2019-04-21T11:23:18.032Z,18.13
2019-04-21T11:24:16.467Z,19.31
2019-04-21T11:25:15.852Z,18.62
2019-04-21T11:26:16.019Z,18.93
2019-04-21T11:27:16.758Z,18.15
2019-04-21T11:28:16.710Z,17.85
2019-04-21T11:29:17.054Z,17.77
2019-04-21T11:30:15.847Z,17.96
2019-04-21T11:31:15.694Z,18.55
2019-04-21T11:32:16.826Z,18.56
2019-04-21T11:33:15.703Z,19.86
2019-04-21T11:34:15.700Z,17.99
2019-04-21T11:35:17.057Z,17.00
2019-04-21T11:36:15.732Z,17.98
2019-04-21T11:37:16.438Z,18.07
2019-04-21T11:38:20.417Z,18.27
2019-04-21T11:39:24.692Z,17.38
2019-04-21T11:40:18.192Z,17.57
2019-04-21T11:41:16.088Z,17.17
2019-04-21T11:42:15.710Z,18.04
2019-04-21T11:43:15.800Z,19.12
2019-04-21T11:44:16.299Z,18.73
2019-04-21T11:45:16.519Z,19.22
2019-04-21T11:46:16.265Z,19.02
2019-04-21T11:47:16.366Z,19.81
2019-04-21T11:48:16.644Z,19.72
2019-04-21T11:49:15.898Z,18.95
2019-04-21T11:50:16.990Z,17.88
2019-04-21T11:51:15.728Z,18.29
2019-04-21T11:52:16.539Z,17.00
2019-04-21T11:53:16.840Z,17.60
2019-04-21T11:54:16.982Z,18.18
2019-04-21T11:55:16.599Z,18.06
2019-04-21T11:56:16.839Z,20.12
2019-04-21T11:57:22.731Z,19.92
2019-04-21T11:58:16.058Z,18.74
2019-04-21T11:59:15.733Z,18.26
2019-04-21T12:00:15.826Z,19.23
2019-04-21T12:01:15.897Z,19.73
2019-04-21T12:02:15.740Z,17.96
2019-04-21T12:03:17.361Z,17.77
2019-04-21T12:04:16.188Z,18.86
2019-04-21T12:05:15.746Z,17.88
2019-04-21T12:06:15.744Z,17.29
2019-04-21T12:07:15.744Z,18.16
2019-04-21T12:08:23.336Z,18.76
2019-04-21T12:09:16.894Z,17.19
2019-04-21T12:10:15.751Z,17.39
2019-04-21T12:11:15.994Z,16.59
2019-04-21T12:12:16.949Z,17.56
2019-04-21T12:13:16.309Z,17.96
2019-04-21T12:14:16.259Z,17.39
2019-04-21T12:15:16.707Z,16.41
2019-04-21T12:16:16.987Z,17.19
2019-04-21T12:17:16.369Z,16.61
2019-04-21T12:18:15.766Z,17.77
2019-04-21T12:19:16.716Z,18.04
2019-04-21T12:20:16.751Z,19.32
2019-04-21T12:21:15.892Z,19.22
2019-04-21T12:22:21.577Z,19.22
2019-04-21T12:23:16.347Z,18.04
2019-04-21T12:24:15.777Z,17.55
2019-04-21T12:25:15.776Z,18.73
2019-04-21T12:26:15.984Z,17.86
2019-04-21T12:27:16.122Z,17.68
2019-04-21T12:28:15.996Z,18.18
2019-04-21T12:29:16.709Z,17.58
2019-04-21T12:30:15.861Z,17.29
2019-04-21T12:31:15.793Z,17.57
2019-04-21T12:32:16.003Z,17.26
2019-04-21T12:33:16.165Z,17.26
2019-04-21T12:34:16.176Z,17.85
2019-04-21T12:35:15.859Z,17.85
2019-04-21T12:36:15.981Z,18.34
2019-04-21T12:37:17.067Z,17.16
2019-04-21T12:38:17.473Z,17.47
2019-04-21T12:39:16.885Z,17.10
2019-04-21T12:40:16.830Z,16.89
2019-04-21T12:41:15.806Z,15.11
2019-04-21T12:42:16.568Z,15.48
2019-04-21T12:43:16.777Z,16.47
2019-04-21T12:44:15.820Z,16.97
2019-04-21T12:45:17.304Z,16.58
2019-04-21T12:46:15.973Z,17.38
2019-04-21T12:47:16.225Z,17.97
2019-04-21T12:48:15.957Z,17.19
2019-04-21T12:49:15.986Z,15.81
2019-04-21T12:50:16.933Z,15.70
2019-04-21T12:51:15.823Z,16.57
2019-04-21T12:52:15.822Z,17.55
2019-04-21T12:53:17.422Z,18.90
2019-04-21T12:54:15.828Z,20.25
2019-04-21T12:55:15.827Z,19.73
2019-04-21T12:56:15.844Z,20.01
2019-04-21T12:57:17.050Z,21.07
2019-04-21T12:58:17.199Z,21.06
2019-04-21T12:59:16.956Z,21.33
2019-04-21T13:00:15.826Z,22.50
2019-04-21T13:01:16.760Z,22.59
2019-04-21T13:02:16.029Z,23.63
2019-04-21T13:03:17.327Z,24.12
2019-04-21T13:04:15.824Z,23.80
2019-04-21T13:05:15.988Z,25.64
2019-04-21T13:06:15.968Z,26.50
2019-04-21T13:07:15.822Z,26.10
2019-04-21T13:08:15.819Z,27.07
2019-04-21T13:09:19.777Z,27.37
2019-04-21T13:10:16.124Z,25.63
2019-04-21T13:11:17.023Z,24.27
2019-04-21T13:12:17.196Z,25.04
2019-04-21T13:13:15.816Z,25.34
2019-04-21T13:14:15.871Z,25.23
2019-04-21T13:15:15.813Z,25.52
2019-04-21T13:16:15.808Z,24.93
2019-04-21T13:17:15.808Z,26.59
2019-04-21T13:18:16.439Z,25.71
2019-04-21T13:19:15.839Z,26.49
2019-04-21T13:20:16.967Z,27.83
2019-04-21T13:21:16.117Z,28.04
2019-04-21T13:22:16.150Z,25.60
2019-04-21T13:23:16.759Z,25.41
2019-04-21T13:24:16.069Z,26.67
2019-04-21T13:25:16.098Z,25.99
2019-04-21T13:26:27.167Z,27.15
2019-04-21T13:27:15.785Z,25.70
2019-04-21T13:28:16.559Z,26.48
2019-04-21T13:29:16.481Z,25.70
2019-04-21T13:30:15.774Z,26.86
2019-04-21T13:31:16.133Z,26.65
2019-04-21T13:32:16.358Z,26.27
2019-04-21T13:33:15.764Z,27.42
2019-04-21T13:34:17.914Z,28.56
2019-04-21T13:35:17.094Z,29.24
2019-04-21T13:36:15.867Z,29.34
2019-04-21T13:37:15.754Z,29.44
2019-04-21T13:38:23.137Z,29.34
2019-04-21T13:39:45.865Z,29.24
2019-04-21T13:40:36.928Z,29.53
2019-04-21T13:41:29.804Z,28.76
2019-04-21T13:42:23.951Z,29.52
2019-04-21T13:43:17.084Z,28.65
2019-04-21T13:44:17.614Z,28.45
2019-04-21T13:45:16.308Z,27.67
2019-04-21T13:46:15.709Z,28.34
2019-04-21T13:47:16.813Z,27.96
2019-04-21T13:48:16.815Z,27.67
2019-04-21T13:49:17.069Z,28.54
2019-04-21T13:50:15.688Z,28.52
2019-04-21T13:51:15.684Z,28.04
2019-04-21T13:52:15.677Z,27.94
2019-04-21T13:53:16.645Z,28.91
2019-04-21T13:54:15.779Z,28.52
2019-04-21T13:55:15.941Z,29.50
2019-04-21T13:56:16.315Z,29.90
2019-04-21T13:57:16.721Z,29.52
2019-04-21T13:58:16.821Z,28.26
2019-04-21T13:59:16.082Z,28.76
2019-04-21T14:00:17.119Z,28.76
2019-04-21T14:01:15.978Z,27.60